sensor_id;sensor_type;location;lat;lon;timestamp;P1;durP1;ratioP1;P2;durP2;ratioP2
37288;SDS011;23174;49.462;11.000;2023-12-22T00:01:18;2.25;;;0.28;;
37288;SDS011;23174;49.462;11.000;2023-12-22T00:03:19;0.20;;;0.10;;
37288;SDS011;23174;49.462;11.000;2023-12-22T00:05:19;0.93;;;0.40;;
37288;SDS011;23174;49.462;11.000;2023-12-22T00:07:20;0.50;;;0.35;;
37288;SDS011;23174;49.462;11.000;2023-12-22T00:09:20;1.27;;;0.30;;
37288;SDS011;23174;49.462;11.000;2023-12-22T00:11:20;0.17;;;0.17;;
37288;SDS011;23174;49.462;11.000;2023-12-22T00:13:21;0.30;;;0.30;;
37288;SDS011;23174;49.462;11.000;2023-12-22T00:15:21;2.67;;;0.80;;
37288;SDS011;23174;49.462;11.000;2023-12-22T00:17:22;0.20;;;0.10;;
37288;SDS011;23174;49.462;11.000;2023-12-22T00:19:22;0.38;;;0.38;;
37288;SDS011;23174;49.462;11.000;2023-12-22T00:21:23;1.85;;;0.90;;
37288;SDS011;23174;49.462;11.000;2023-12-22T00:23:23;3.75;;;1.38;;
37288;SDS011;23174;49.462;11.000;2023-12-22T00:25:24;3.85;;;1.30;;
37288;SDS011;23174;49.462;11.000;2023-12-22T00:27:24;2.35;;;1.35;;
37288;SDS011;23174;49.462;11.000;2023-12-22T00:29:27;2.45;;;1.38;;
37288;SDS011;23174;49.462;11.000;2023-12-22T00:31:28;5.28;;;1.35;;
37288;SDS011;23174;49.462;11.000;2023-12-22T00:33:29;2.13;;;1.10;;
37288;SDS011;23174;49.462;11.000;2023-12-22T00:35:29;5.47;;;1.73;;
37288;SDS011;23174;49.462;11.000;2023-12-22T00:37:29;2.47;;;1.40;;
37288;SDS011;23174;49.462;11.000;2023-12-22T00:39:30;3.70;;;1.20;;
37288;SDS011;23174;49.462;11.000;2023-12-22T00:41:31;2.65;;;1.23;;
37288;SDS011;23174;49.462;11.000;2023-12-22T00:43:31;3.33;;;1.63;;
37288;SDS011;23174;49.462;11.000;2023-12-22T00:45:32;3.92;;;1.60;;
37288;SDS011;23174;49.462;11.000;2023-12-22T00:47:32;5.15;;;1.50;;
37288;SDS011;23174;49.462;11.000;2023-12-22T00:49:35;4.30;;;2.00;;
37288;SDS011;23174;49.462;11.000;2023-12-22T00:51:36;3.60;;;1.42;;
37288;SDS011;23174;49.462;11.000;2023-12-22T00:53:36;2.40;;;1.30;;
37288;SDS011;23174;49.462;11.000;2023-12-22T00:55:37;5.30;;;1.52;;
37288;SDS011;23174;49.462;11.000;2023-12-22T00:57:37;4.57;;;1.55;;
37288;SDS011;23174;49.462;11.000;2023-12-22T00:59:38;2.90;;;1.92;;
37288;SDS011;23174;49.462;11.000;2023-12-22T01:01:42;6.88;;;1.77;;
37288;SDS011;23174;49.462;11.000;2023-12-22T01:03:43;5.72;;;1.42;;
37288;SDS011;23174;49.462;11.000;2023-12-22T01:05:44;2.90;;;1.67;;
37288;SDS011;23174;49.462;11.000;2023-12-22T01:07:44;3.22;;;1.45;;
37288;SDS011;23174;49.462;11.000;2023-12-22T01:09:45;4.13;;;1.45;;
37288;SDS011;23174;49.462;11.000;2023-12-22T01:11:45;3.83;;;1.55;;
37288;SDS011;23174;49.462;11.000;2023-12-22T01:13:46;4.57;;;1.73;;
37288;SDS011;23174;49.462;11.000;2023-12-22T01:15:46;3.85;;;1.60;;
37288;SDS011;23174;49.462;11.000;2023-12-22T01:17:47;3.10;;;1.33;;
37288;SDS011;23174;49.462;11.000;2023-12-22T01:19:47;3.28;;;1.50;;
37288;SDS011;23174;49.462;11.000;2023-12-22T01:21:48;4.95;;;1.73;;
37288;SDS011;23174;49.462;11.000;2023-12-22T01:23:49;3.40;;;1.70;;
37288;SDS011;23174;49.462;11.000;2023-12-22T01:25:50;5.15;;;1.60;;
37288;SDS011;23174;49.462;11.000;2023-12-22T01:27:50;4.55;;;1.40;;
37288;SDS011;23174;49.462;11.000;2023-12-22T01:29:52;4.53;;;1.40;;
37288;SDS011;23174;49.462;11.000;2023-12-22T01:31:52;4.07;;;1.42;;
37288;SDS011;23174;49.462;11.000;2023-12-22T01:33:53;3.92;;;1.83;;
37288;SDS011;23174;49.462;11.000;2023-12-22T01:35:53;5.60;;;1.50;;
37288;SDS011;23174;49.462;11.000;2023-12-22T01:37:54;2.58;;;1.75;;
37288;SDS011;23174;49.462;11.000;2023-12-22T01:39:54;2.72;;;1.30;;
37288;SDS011;23174;49.462;11.000;2023-12-22T01:41:55;2.03;;;1.05;;
37288;SDS011;23174;49.462;11.000;2023-12-22T01:43:55;2.22;;;1.30;;
37288;SDS011;23174;49.462;11.000;2023-12-22T01:45:57;3.67;;;1.15;;
37288;SDS011;23174;49.462;11.000;2023-12-22T01:47:59;1.58;;;1.05;;
37288;SDS011;23174;49.462;11.000;2023-12-22T01:50:00;4.32;;;1.15;;
37288;SDS011;23174;49.462;11.000;2023-12-22T01:52:01;1.98;;;1.05;;
37288;SDS011;23174;49.462;11.000;2023-12-22T01:54:02;1.88;;;1.20;;
37288;SDS011;23174;49.462;11.000;2023-12-22T01:56:03;3.28;;;1.10;;
37288;SDS011;23174;49.462;11.000;2023-12-22T01:58:04;1.17;;;0.70;;
37288;SDS011;23174;49.462;11.000;2023-12-22T02:00:05;2.50;;;1.15;;
37288;SDS011;23174;49.462;11.000;2023-12-22T02:02:07;2.53;;;1.10;;
37288;SDS011;23174;49.462;11.000;2023-12-22T02:04:08;2.53;;;1.17;;
37288;SDS011;23174;49.462;11.000;2023-12-22T02:06:09;3.47;;;1.00;;
37288;SDS011;23174;49.462;11.000;2023-12-22T02:08:10;2.10;;;0.80;;
37288;SDS011;23174;49.462;11.000;2023-12-22T02:10:11;1.15;;;0.90;;
37288;SDS011;23174;49.462;11.000;2023-12-22T02:12:12;1.08;;;0.90;;
37288;SDS011;23174;49.462;11.000;2023-12-22T02:14:12;1.38;;;0.95;;
37288;SDS011;23174;49.462;11.000;2023-12-22T02:16:18;2.20;;;0.70;;
37288;SDS011;23174;49.462;11.000;2023-12-22T02:18:42;1.70;;;0.80;;
37288;SDS011;23174;49.462;11.000;2023-12-22T02:20:46;1.80;;;1.00;;
37288;SDS011;23174;49.462;11.000;2023-12-22T02:22:53;1.60;;;0.95;;
37288;SDS011;23174;49.462;11.000;2023-12-22T02:24:53;1.98;;;0.85;;
37288;SDS011;23174;49.462;11.000;2023-12-22T02:26:54;1.15;;;0.70;;
37288;SDS011;23174;49.462;11.000;2023-12-22T02:29:00;3.65;;;1.13;;
37288;SDS011;23174;49.462;11.000;2023-12-22T02:31:17;1.02;;;0.50;;
37288;SDS011;23174;49.462;11.000;2023-12-22T02:33:22;1.17;;;0.75;;
37288;SDS011;23174;49.462;11.000;2023-12-22T02:35:25;1.58;;;1.10;;
37288;SDS011;23174;49.462;11.000;2023-12-22T02:37:27;2.33;;;1.00;;
37288;SDS011;23174;49.462;11.000;2023-12-22T02:39:29;3.67;;;1.20;;
37288;SDS011;23174;49.462;11.000;2023-12-22T02:41:29;1.75;;;0.70;;
37288;SDS011;23174;49.462;11.000;2023-12-22T02:43:30;1.83;;;0.75;;
37288;SDS011;23174;49.462;11.000;2023-12-22T02:45:32;1.10;;;0.90;;
37288;SDS011;23174;49.462;11.000;2023-12-22T02:47:32;1.58;;;0.60;;
37288;SDS011;23174;49.462;11.000;2023-12-22T02:49:33;0.98;;;0.73;;
37288;SDS011;23174;49.462;11.000;2023-12-22T02:51:33;1.33;;;0.70;;
37288;SDS011;23174;49.462;11.000;2023-12-22T02:53:34;1.23;;;0.55;;
37288;SDS011;23174;49.462;11.000;2023-12-22T02:55:34;1.65;;;0.63;;
37288;SDS011;23174;49.462;11.000;2023-12-22T02:57:35;0.68;;;0.50;;
37288;SDS011;23174;49.462;11.000;2023-12-22T02:59:36;1.15;;;0.70;;
37288;SDS011;23174;49.462;11.000;2023-12-22T03:01:37;0.60;;;0.60;;
37288;SDS011;23174;49.462;11.000;2023-12-22T03:03:37;0.95;;;0.47;;
37288;SDS011;23174;49.462;11.000;2023-12-22T03:05:38;1.52;;;0.40;;
37288;SDS011;23174;49.462;11.000;2023-12-22T03:07:38;1.02;;;0.60;;
37288;SDS011;23174;49.462;11.000;2023-12-22T03:09:39;0.80;;;0.50;;
37288;SDS011;23174;49.462;11.000;2023-12-22T03:11:40;0.57;;;0.50;;
37288;SDS011;23174;49.462;11.000;2023-12-22T03:13:40;0.55;;;0.40;;
37288;SDS011;23174;49.462;11.000;2023-12-22T03:15:41;0.50;;;0.50;;
37288;SDS011;23174;49.462;11.000;2023-12-22T03:17:41;2.58;;;0.70;;
37288;SDS011;23174;49.462;11.000;2023-12-22T03:19:41;0.57;;;0.55;;
37288;SDS011;23174;49.462;11.000;2023-12-22T03:21:42;1.60;;;0.63;;
37288;SDS011;23174;49.462;11.000;2023-12-22T03:23:42;0.57;;;0.30;;
37288;SDS011;23174;49.462;11.000;2023-12-22T03:25:43;0.95;;;0.40;;
37288;SDS011;23174;49.462;11.000;2023-12-22T03:27:44;1.02;;;0.50;;
37288;SDS011;23174;49.462;11.000;2023-12-22T03:29:44;1.08;;;0.60;;
37288;SDS011;23174;49.462;11.000;2023-12-22T03:31:45;0.93;;;0.43;;
37288;SDS011;23174;49.462;11.000;2023-12-22T03:33:45;1.08;;;0.38;;
37288;SDS011;23174;49.462;11.000;2023-12-22T03:35:46;0.22;;;0.20;;
37288;SDS011;23174;49.462;11.000;2023-12-22T03:37:46;0.63;;;0.30;;
37288;SDS011;23174;49.462;11.000;2023-12-22T03:39:47;0.30;;;0.20;;
37288;SDS011;23174;49.462;11.000;2023-12-22T03:41:47;0.80;;;0.30;;
37288;SDS011;23174;49.462;11.000;2023-12-22T03:43:48;1.45;;;0.30;;
37288;SDS011;23174;49.462;11.000;2023-12-22T03:45:48;1.55;;;0.32;;
37288;SDS011;23174;49.462;11.000;2023-12-22T03:47:49;0.60;;;0.22;;
37288;SDS011;23174;49.462;11.000;2023-12-22T03:49:49;1.23;;;0.60;;
37288;SDS011;23174;49.462;11.000;2023-12-22T03:51:50;0.95;;;0.77;;
37288;SDS011;23174;49.462;11.000;2023-12-22T03:53:50;1.48;;;0.70;;
37288;SDS011;23174;49.462;11.000;2023-12-22T03:55:51;1.20;;;0.40;;
37288;SDS011;23174;49.462;11.000;2023-12-22T03:57:51;2.38;;;0.45;;
37288;SDS011;23174;49.462;11.000;2023-12-22T03:59:51;0.73;;;0.50;;
37288;SDS011;23174;49.462;11.000;2023-12-22T04:01:52;0.85;;;0.60;;
37288;SDS011;23174;49.462;11.000;2023-12-22T04:03:53;0.95;;;0.50;;
37288;SDS011;23174;49.462;11.000;2023-12-22T04:05:54;2.17;;;0.57;;
37288;SDS011;23174;49.462;11.000;2023-12-22T04:07:54;0.63;;;0.50;;
37288;SDS011;23174;49.462;11.000;2023-12-22T04:09:55;1.10;;;0.52;;
37288;SDS011;23174;49.462;11.000;2023-12-22T04:11:55;2.40;;;0.50;;
37288;SDS011;23174;49.462;11.000;2023-12-22T04:13:56;1.17;;;0.50;;
37288;SDS011;23174;49.462;11.000;2023-12-22T04:15:56;2.25;;;0.80;;
37288;SDS011;23174;49.462;11.000;2023-12-22T04:17:56;2.67;;;0.50;;
37288;SDS011;23174;49.462;11.000;2023-12-22T04:19:57;2.28;;;0.40;;
37288;SDS011;23174;49.462;11.000;2023-12-22T04:21:57;1.23;;;0.43;;
37288;SDS011;23174;49.462;11.000;2023-12-22T04:23:58;0.57;;;0.40;;
37288;SDS011;23174;49.462;11.000;2023-12-22T04:25:58;0.57;;;0.40;;
37288;SDS011;23174;49.462;11.000;2023-12-22T04:27:59;0.52;;;0.30;;
37288;SDS011;23174;49.462;11.000;2023-12-22T04:29:59;1.58;;;0.63;;
37288;SDS011;23174;49.462;11.000;2023-12-22T04:32:00;1.05;;;0.47;;
37288;SDS011;23174;49.462;11.000;2023-12-22T04:34:00;1.83;;;0.70;;
37288;SDS011;23174;49.462;11.000;2023-12-22T04:36:01;2.05;;;0.50;;
37288;SDS011;23174;49.462;11.000;2023-12-22T04:38:01;1.13;;;0.45;;
37288;SDS011;23174;49.462;11.000;2023-12-22T04:40:02;0.88;;;0.40;;
37288;SDS011;23174;49.462;11.000;2023-12-22T04:42:03;0.73;;;0.50;;
37288;SDS011;23174;49.462;11.000;2023-12-22T04:44:03;1.92;;;0.50;;
37288;SDS011;23174;49.462;11.000;2023-12-22T04:46:04;1.48;;;0.47;;
37288;SDS011;23174;49.462;11.000;2023-12-22T04:48:05;3.70;;;0.77;;
37288;SDS011;23174;49.462;11.000;2023-12-22T04:50:06;1.08;;;0.70;;
37288;SDS011;23174;49.462;11.000;2023-12-22T04:52:06;1.45;;;0.50;;
37288;SDS011;23174;49.462;11.000;2023-12-22T04:54:07;1.25;;;0.60;;
37288;SDS011;23174;49.462;11.000;2023-12-22T04:56:07;2.42;;;0.60;;
37288;SDS011;23174;49.462;11.000;2023-12-22T04:58:08;3.38;;;0.70;;
37288;SDS011;23174;49.462;11.000;2023-12-22T05:00:08;0.70;;;0.50;;
37288;SDS011;23174;49.462;11.000;2023-12-22T05:02:09;1.25;;;0.52;;
37288;SDS011;23174;49.462;11.000;2023-12-22T05:04:09;0.98;;;0.40;;
37288;SDS011;23174;49.462;11.000;2023-12-22T05:06:10;0.70;;;0.40;;
37288;SDS011;23174;49.462;11.000;2023-12-22T05:08:10;2.00;;;0.60;;
37288;SDS011;23174;49.462;11.000;2023-12-22T05:10:11;2.58;;;0.50;;
37288;SDS011;23174;49.462;11.000;2023-12-22T05:12:11;0.77;;;0.50;;
37288;SDS011;23174;49.462;11.000;2023-12-22T05:14:12;0.65;;;0.50;;
37288;SDS011;23174;49.462;11.000;2023-12-22T05:16:12;0.82;;;0.57;;
37288;SDS011;23174;49.462;11.000;2023-12-22T05:18:13;0.55;;;0.40;;
37288;SDS011;23174;49.462;11.000;2023-12-22T05:20:13;1.42;;;0.68;;
37288;SDS011;23174;49.462;11.000;2023-12-22T05:22:15;0.80;;;0.57;;
37288;SDS011;23174;49.462;11.000;2023-12-22T05:24:15;0.50;;;0.50;;
37288;SDS011;23174;49.462;11.000;2023-12-22T05:26:22;1.48;;;0.50;;
37288;SDS011;23174;49.462;11.000;2023-12-22T05:28:23;1.08;;;0.50;;
37288;SDS011;23174;49.462;11.000;2023-12-22T05:30:24;1.08;;;0.75;;
37288;SDS011;23174;49.462;11.000;2023-12-22T05:32:24;0.70;;;0.52;;
37288;SDS011;23174;49.462;11.000;2023-12-22T05:34:25;0.73;;;0.40;;
37288;SDS011;23174;49.462;11.000;2023-12-22T05:36:25;1.40;;;0.43;;
37288;SDS011;23174;49.462;11.000;2023-12-22T05:38:26;0.80;;;0.50;;
37288;SDS011;23174;49.462;11.000;2023-12-22T05:40:26;1.05;;;0.80;;
37288;SDS011;23174;49.462;11.000;2023-12-22T05:42:27;0.65;;;0.30;;
37288;SDS011;23174;49.462;11.000;2023-12-22T05:44:27;1.02;;;0.50;;
37288;SDS011;23174;49.462;11.000;2023-12-22T05:46:30;0.60;;;0.30;;
37288;SDS011;23174;49.462;11.000;2023-12-22T05:48:30;0.88;;;0.40;;
37288;SDS011;23174;49.462;11.000;2023-12-22T05:50:31;0.93;;;0.65;;
37288;SDS011;23174;49.462;11.000;2023-12-22T05:52:31;0.60;;;0.50;;
37288;SDS011;23174;49.462;11.000;2023-12-22T05:54:32;0.73;;;0.40;;
37288;SDS011;23174;49.462;11.000;2023-12-22T05:56:32;0.38;;;0.30;;
37288;SDS011;23174;49.462;11.000;2023-12-22T05:58:33;0.45;;;0.32;;
37288;SDS011;23174;49.462;11.000;2023-12-22T06:00:34;0.38;;;0.35;;
37288;SDS011;23174;49.462;11.000;2023-12-22T06:02:35;1.00;;;0.50;;
37288;SDS011;23174;49.462;11.000;2023-12-22T06:04:35;0.88;;;0.38;;
37288;SDS011;23174;49.462;11.000;2023-12-22T06:06:36;0.65;;;0.20;;
37288;SDS011;23174;49.462;11.000;2023-12-22T06:08:38;0.25;;;0.22;;
37288;SDS011;23174;49.462;11.000;2023-12-22T06:10:38;0.65;;;0.25;;
37288;SDS011;23174;49.462;11.000;2023-12-22T06:12:39;0.70;;;0.40;;
37288;SDS011;23174;49.462;11.000;2023-12-22T06:14:39;0.65;;;0.30;;
37288;SDS011;23174;49.462;11.000;2023-12-22T06:16:40;0.82;;;0.32;;
37288;SDS011;23174;49.462;11.000;2023-12-22T06:18:41;0.38;;;0.25;;
37288;SDS011;23174;49.462;11.000;2023-12-22T06:20:41;0.28;;;0.20;;
37288;SDS011;23174;49.462;11.000;2023-12-22T06:22:42;0.40;;;0.17;;
37288;SDS011;23174;49.462;11.000;2023-12-22T06:24:42;1.13;;;0.30;;
37288;SDS011;23174;49.462;11.000;2023-12-22T06:26:43;0.43;;;0.30;;
37288;SDS011;23174;49.462;11.000;2023-12-22T06:28:43;0.63;;;0.30;;
37288;SDS011;23174;49.462;11.000;2023-12-22T06:30:44;0.55;;;0.30;;
37288;SDS011;23174;49.462;11.000;2023-12-22T06:32:45;0.30;;;0.30;;
37288;SDS011;23174;49.462;11.000;2023-12-22T06:34:45;0.60;;;0.50;;
37288;SDS011;23174;49.462;11.000;2023-12-22T06:36:46;0.50;;;0.32;;
37288;SDS011;23174;49.462;11.000;2023-12-22T06:38:47;0.47;;;0.47;;
37288;SDS011;23174;49.462;11.000;2023-12-22T06:40:47;0.95;;;0.52;;
37288;SDS011;23174;49.462;11.000;2023-12-22T06:42:48;0.38;;;0.30;;
37288;SDS011;23174;49.462;11.000;2023-12-22T06:44:48;0.63;;;0.63;;
37288;SDS011;23174;49.462;11.000;2023-12-22T06:46:49;0.55;;;0.52;;
37288;SDS011;23174;49.462;11.000;2023-12-22T06:48:49;1.25;;;0.70;;
37288;SDS011;23174;49.462;11.000;2023-12-22T06:50:50;1.33;;;0.75;;
37288;SDS011;23174;49.462;11.000;2023-12-22T06:52:50;4.97;;;0.70;;
37288;SDS011;23174;49.462;11.000;2023-12-22T06:54:51;1.40;;;0.60;;
37288;SDS011;23174;49.462;11.000;2023-12-22T06:56:52;0.47;;;0.47;;
37288;SDS011;23174;49.462;11.000;2023-12-22T06:58:53;0.90;;;0.60;;
37288;SDS011;23174;49.462;11.000;2023-12-22T07:00:55;1.10;;;0.80;;
37288;SDS011;23174;49.462;11.000;2023-12-22T07:02:56;1.42;;;0.85;;
37288;SDS011;23174;49.462;11.000;2023-12-22T07:07:09;1.90;;;1.08;;
37288;SDS011;23174;49.462;11.000;2023-12-22T07:13:20;3.92;;;0.93;;
37288;SDS011;23174;49.462;11.000;2023-12-22T07:15:20;1.27;;;0.90;;
37288;SDS011;23174;49.462;11.000;2023-12-22T07:17:21;1.30;;;0.80;;
37288;SDS011;23174;49.462;11.000;2023-12-22T07:19:21;2.25;;;1.20;;
37288;SDS011;23174;49.462;11.000;2023-12-22T07:21:22;1.60;;;0.93;;
37288;SDS011;23174;49.462;11.000;2023-12-22T07:23:23;1.65;;;0.90;;
37288;SDS011;23174;49.462;11.000;2023-12-22T07:25:23;2.00;;;1.00;;
37288;SDS011;23174;49.462;11.000;2023-12-22T07:27:23;2.67;;;0.90;;
37288;SDS011;23174;49.462;11.000;2023-12-22T07:29:24;2.28;;;0.90;;
37288;SDS011;23174;49.462;11.000;2023-12-22T07:31:25;1.20;;;0.80;;
37288;SDS011;23174;49.462;11.000;2023-12-22T07:33:25;2.38;;;0.90;;
37288;SDS011;23174;49.462;11.000;2023-12-22T07:35:26;1.00;;;0.75;;
37288;SDS011;23174;49.462;11.000;2023-12-22T07:37:26;2.15;;;0.90;;
37288;SDS011;23174;49.462;11.000;2023-12-22T07:39:26;2.17;;;1.20;;
37288;SDS011;23174;49.462;11.000;2023-12-22T07:41:27;2.25;;;0.93;;
37288;SDS011;23174;49.462;11.000;2023-12-22T07:43:27;1.85;;;1.13;;
37288;SDS011;23174;49.462;11.000;2023-12-22T07:45:29;2.53;;;1.02;;
37288;SDS011;23174;49.462;11.000;2023-12-22T07:47:30;2.10;;;1.13;;
37288;SDS011;23174;49.462;11.000;2023-12-22T07:49:31;2.00;;;1.08;;
37288;SDS011;23174;49.462;11.000;2023-12-22T07:51:31;2.53;;;1.10;;
37288;SDS011;23174;49.462;11.000;2023-12-22T07:53:32;1.23;;;0.90;;
37288;SDS011;23174;49.462;11.000;2023-12-22T07:55:33;1.90;;;1.00;;
37288;SDS011;23174;49.462;11.000;2023-12-22T07:57:34;4.05;;;1.35;;
37288;SDS011;23174;49.462;11.000;2023-12-22T07:59:34;2.13;;;1.23;;
37288;SDS011;23174;49.462;11.000;2023-12-22T08:01:35;2.47;;;1.20;;
37288;SDS011;23174;49.462;11.000;2023-12-22T08:03:35;1.38;;;0.82;;
37288;SDS011;23174;49.462;11.000;2023-12-22T08:05:37;2.08;;;1.10;;
37288;SDS011;23174;49.462;11.000;2023-12-22T08:07:37;2.03;;;1.23;;
37288;SDS011;23174;49.462;11.000;2023-12-22T08:09:38;1.92;;;1.17;;
37288;SDS011;23174;49.462;11.000;2023-12-22T08:11:38;4.43;;;1.40;;
37288;SDS011;23174;49.462;11.000;2023-12-22T08:13:39;2.38;;;1.15;;
37288;SDS011;23174;49.462;11.000;2023-12-22T08:15:40;5.00;;;1.40;;
37288;SDS011;23174;49.462;11.000;2023-12-22T08:17:47;2.30;;;1.23;;
37288;SDS011;23174;49.462;11.000;2023-12-22T08:19:48;2.80;;;1.35;;
37288;SDS011;23174;49.462;11.000;2023-12-22T08:21:49;2.50;;;1.10;;
37288;SDS011;23174;49.462;11.000;2023-12-22T08:23:50;2.17;;;1.25;;
37288;SDS011;23174;49.462;11.000;2023-12-22T08:25:50;2.53;;;1.00;;
37288;SDS011;23174;49.462;11.000;2023-12-22T08:27:51;2.60;;;1.40;;
37288;SDS011;23174;49.462;11.000;2023-12-22T08:29:52;1.27;;;1.17;;
37288;SDS011;23174;49.462;11.000;2023-12-22T08:31:52;2.20;;;1.17;;
37288;SDS011;23174;49.462;11.000;2023-12-22T08:33:53;2.47;;;0.95;;
37288;SDS011;23174;49.462;11.000;2023-12-22T08:35:54;2.15;;;1.20;;
37288;SDS011;23174;49.462;11.000;2023-12-22T08:37:54;1.58;;;1.00;;
37288;SDS011;23174;49.462;11.000;2023-12-22T08:39:55;2.28;;;1.23;;
37288;SDS011;23174;49.462;11.000;2023-12-22T08:41:55;1.80;;;1.20;;
37288;SDS011;23174;49.462;11.000;2023-12-22T08:43:56;2.00;;;0.70;;
37288;SDS011;23174;49.462;11.000;2023-12-22T08:45:56;1.98;;;0.90;;
37288;SDS011;23174;49.462;11.000;2023-12-22T08:47:57;1.15;;;0.75;;
37288;SDS011;23174;49.462;11.000;2023-12-22T08:49:57;0.98;;;0.68;;
37288;SDS011;23174;49.462;11.000;2023-12-22T08:51:58;1.15;;;0.90;;
37288;SDS011;23174;49.462;11.000;2023-12-22T08:53:58;2.03;;;1.17;;
37288;SDS011;23174;49.462;11.000;2023-12-22T08:55:59;2.95;;;1.50;;
37288;SDS011;23174;49.462;11.000;2023-12-22T08:58:00;2.00;;;1.20;;
37288;SDS011;23174;49.462;11.000;2023-12-22T09:00:00;3.22;;;0.90;;
37288;SDS011;23174;49.462;11.000;2023-12-22T09:02:01;1.95;;;0.93;;
37288;SDS011;23174;49.462;11.000;2023-12-22T09:04:01;1.75;;;1.05;;
37288;SDS011;23174;49.462;11.000;2023-12-22T09:06:02;2.55;;;1.50;;
37288;SDS011;23174;49.462;11.000;2023-12-22T09:08:03;1.90;;;0.85;;
37288;SDS011;23174;49.462;11.000;2023-12-22T09:10:04;2.08;;;0.95;;
37288;SDS011;23174;49.462;11.000;2023-12-22T09:12:05;3.03;;;1.20;;
37288;SDS011;23174;49.462;11.000;2023-12-22T09:14:06;2.35;;;1.45;;
37288;SDS011;23174;49.462;11.000;2023-12-22T09:16:09;2.97;;;1.20;;
37288;SDS011;23174;49.462;11.000;2023-12-22T09:18:10;3.53;;;1.48;;
37288;SDS011;23174;49.462;11.000;2023-12-22T09:20:11;3.58;;;1.58;;
37288;SDS011;23174;49.462;11.000;2023-12-22T09:22:12;2.97;;;1.50;;
37288;SDS011;23174;49.462;11.000;2023-12-22T09:24:12;3.22;;;1.45;;
37288;SDS011;23174;49.462;11.000;2023-12-22T09:26:13;4.07;;;1.45;;
37288;SDS011;23174;49.462;11.000;2023-12-22T09:28:14;3.83;;;1.42;;
37288;SDS011;23174;49.462;11.000;2023-12-22T09:30:15;3.00;;;1.38;;
37288;SDS011;23174;49.462;11.000;2023-12-22T09:32:15;2.75;;;1.33;;
37288;SDS011;23174;49.462;11.000;2023-12-22T09:34:16;3.30;;;1.45;;
37288;SDS011;23174;49.462;11.000;2023-12-22T09:36:17;3.08;;;1.20;;
37288;SDS011;23174;49.462;11.000;2023-12-22T09:38:17;2.85;;;1.55;;
37288;SDS011;23174;49.462;11.000;2023-12-22T09:40:18;2.80;;;1.38;;
37288;SDS011;23174;49.462;11.000;2023-12-22T09:42:19;3.88;;;1.73;;
37288;SDS011;23174;49.462;11.000;2023-12-22T09:44:21;3.72;;;1.60;;
37288;SDS011;23174;49.462;11.000;2023-12-22T09:46:22;3.05;;;1.40;;
37288;SDS011;23174;49.462;11.000;2023-12-22T09:48:26;6.25;;;1.65;;
37288;SDS011;23174;49.462;11.000;2023-12-22T09:50:28;3.88;;;1.63;;
37288;SDS011;23174;49.462;11.000;2023-12-22T09:52:29;2.30;;;1.38;;
37288;SDS011;23174;49.462;11.000;2023-12-22T09:54:32;4.00;;;1.50;;
37288;SDS011;23174;49.462;11.000;2023-12-22T09:56:33;3.10;;;2.00;;
37288;SDS011;23174;49.462;11.000;2023-12-22T09:58:34;6.55;;;2.03;;
37288;SDS011;23174;49.462;11.000;2023-12-22T10:00:36;2.38;;;1.30;;
37288;SDS011;23174;49.462;11.000;2023-12-22T10:02:37;4.80;;;1.92;;
37288;SDS011;23174;49.462;11.000;2023-12-22T10:04:37;2.17;;;1.00;;
37288;SDS011;23174;49.462;11.000;2023-12-22T10:06:38;1.45;;;1.02;;
37288;SDS011;23174;49.462;11.000;2023-12-22T10:08:39;1.73;;;1.20;;
37288;SDS011;23174;49.462;11.000;2023-12-22T10:10:41;3.80;;;1.27;;
37288;SDS011;23174;49.462;11.000;2023-12-22T10:12:44;1.67;;;1.10;;
37288;SDS011;23174;49.462;11.000;2023-12-22T10:14:45;3.15;;;0.98;;
37288;SDS011;23174;49.462;11.000;2023-12-22T10:16:49;2.58;;;1.02;;
37288;SDS011;23174;49.462;11.000;2023-12-22T10:18:51;2.08;;;1.50;;
37288;SDS011;23174;49.462;11.000;2023-12-22T10:20:52;2.47;;;1.27;;
37288;SDS011;23174;49.462;11.000;2023-12-22T10:22:52;2.75;;;1.13;;
37288;SDS011;23174;49.462;11.000;2023-12-22T10:24:52;2.45;;;1.40;;
37288;SDS011;23174;49.462;11.000;2023-12-22T10:26:53;1.35;;;1.17;;
37288;SDS011;23174;49.462;11.000;2023-12-22T10:28:53;2.10;;;1.35;;
37288;SDS011;23174;49.462;11.000;2023-12-22T10:30:54;2.80;;;1.65;;
37288;SDS011;23174;49.462;11.000;2023-12-22T10:32:59;3.03;;;1.85;;
37288;SDS011;23174;49.462;11.000;2023-12-22T10:35:03;2.08;;;1.50;;
37288;SDS011;23174;49.462;11.000;2023-12-22T10:37:04;2.35;;;1.50;;
37288;SDS011;23174;49.462;11.000;2023-12-22T10:39:05;2.17;;;1.52;;
37288;SDS011;23174;49.462;11.000;2023-12-22T10:41:05;1.60;;;0.90;;
37288;SDS011;23174;49.462;11.000;2023-12-22T10:43:07;1.58;;;0.90;;
37288;SDS011;23174;49.462;11.000;2023-12-22T10:45:08;1.70;;;0.95;;
37288;SDS011;23174;49.462;11.000;2023-12-22T10:47:09;1.23;;;0.80;;
37288;SDS011;23174;49.462;11.000;2023-12-22T10:49:10;1.48;;;1.00;;
37288;SDS011;23174;49.462;11.000;2023-12-22T10:51:10;1.33;;;0.90;;
37288;SDS011;23174;49.462;11.000;2023-12-22T10:53:11;1.60;;;1.20;;
37288;SDS011;23174;49.462;11.000;2023-12-22T10:55:11;2.72;;;1.20;;
37288;SDS011;23174;49.462;11.000;2023-12-22T10:57:12;2.38;;;1.52;;
37288;SDS011;23174;49.462;11.000;2023-12-22T10:59:12;3.72;;;1.45;;
37288;SDS011;23174;49.462;11.000;2023-12-22T11:01:18;2.53;;;1.40;;
37288;SDS011;23174;49.462;11.000;2023-12-22T11:03:21;2.47;;;1.10;;
37288;SDS011;23174;49.462;11.000;2023-12-22T11:05:23;1.63;;;1.52;;
37288;SDS011;23174;49.462;11.000;2023-12-22T11:07:28;2.13;;;1.10;;
37288;SDS011;23174;49.462;11.000;2023-12-22T11:09:29;2.35;;;0.80;;
37288;SDS011;23174;49.462;11.000;2023-12-22T11:11:36;1.75;;;0.82;;
37288;SDS011;23174;49.462;11.000;2023-12-22T11:13:37;2.22;;;1.17;;
37288;SDS011;23174;49.462;11.000;2023-12-22T11:15:39;1.95;;;0.95;;
37288;SDS011;23174;49.462;11.000;2023-12-22T11:17:41;2.30;;;1.15;;
37288;SDS011;23174;49.462;11.000;2023-12-22T11:19:42;1.52;;;0.90;;
37288;SDS011;23174;49.462;11.000;2023-12-22T11:21:43;1.20;;;0.85;;
37288;SDS011;23174;49.462;11.000;2023-12-22T11:23:44;1.42;;;0.82;;
37288;SDS011;23174;49.462;11.000;2023-12-22T11:25:46;0.93;;;0.82;;
37288;SDS011;23174;49.462;11.000;2023-12-22T11:27:50;1.67;;;0.75;;
37288;SDS011;23174;49.462;11.000;2023-12-22T11:29:53;0.88;;;0.70;;
37288;SDS011;23174;49.462;11.000;2023-12-22T11:31:55;1.55;;;0.80;;
37288;SDS011;23174;49.462;11.000;2023-12-22T11:33:57;1.00;;;0.60;;
37288;SDS011;23174;49.462;11.000;2023-12-22T11:35:59;0.85;;;0.60;;
37288;SDS011;23174;49.462;11.000;2023-12-22T11:38:01;1.55;;;0.70;;
37288;SDS011;23174;49.462;11.000;2023-12-22T11:40:03;1.13;;;0.60;;
37288;SDS011;23174;49.462;11.000;2023-12-22T11:42:05;0.98;;;0.60;;
37288;SDS011;23174;49.462;11.000;2023-12-22T11:44:12;2.05;;;0.85;;
37288;SDS011;23174;49.462;11.000;2023-12-22T11:46:15;1.65;;;0.80;;
37288;SDS011;23174;49.462;11.000;2023-12-22T11:48:17;1.85;;;0.80;;
37288;SDS011;23174;49.462;11.000;2023-12-22T11:50:29;1.98;;;1.02;;
37288;SDS011;23174;49.462;11.000;2023-12-22T11:52:30;2.03;;;0.82;;
37288;SDS011;23174;49.462;11.000;2023-12-22T11:54:44;1.35;;;1.10;;
37288;SDS011;23174;49.462;11.000;2023-12-22T11:56:52;1.23;;;0.90;;
37288;SDS011;23174;49.462;11.000;2023-12-22T11:58:52;1.88;;;1.02;;
37288;SDS011;23174;49.462;11.000;2023-12-22T12:00:54;2.28;;;1.23;;
37288;SDS011;23174;49.462;11.000;2023-12-22T12:02:55;3.00;;;1.42;;
37288;SDS011;23174;49.462;11.000;2023-12-22T12:04:56;2.53;;;1.02;;